sensor_id;sensor_type;location;lat;lon;timestamp;P1;durP1;ratioP1;P2;durP2;ratioP2
35847;SDS011;22332;51.954;20.118;2022-10-31T00:01:38;34.50;;;23.70;;
35847;SDS011;22332;51.954;20.118;2022-10-31T00:04:44;37.00;;;25.20;;
35847;SDS011;22332;51.954;20.118;2022-10-31T00:07:52;35.80;;;24.20;;
35847;SDS011;22332;51.954;20.118;2022-10-31T00:10:57;36.30;;;24.60;;
35847;SDS011;22332;51.954;20.118;2022-10-31T00:14:03;36.10;;;23.80;;
35847;SDS011;22332;51.954;20.118;2022-10-31T00:17:08;36.20;;;23.80;;
35847;SDS011;22332;51.954;20.118;2022-10-31T00:20:14;32.80;;;22.90;;
35847;SDS011;22332;51.954;20.118;2022-10-31T00:23:19;30.80;;;20.70;;
35847;SDS011;22332;51.954;20.118;2022-10-31T00:26:25;26.90;;;18.70;;
35847;SDS011;22332;51.954;20.118;2022-10-31T00:29:32;27.30;;;20.40;;
35847;SDS011;22332;51.954;20.118;2022-10-31T00:32:37;30.90;;;20.10;;
35847;SDS011;22332;51.954;20.118;2022-10-31T00:35:42;31.30;;;21.20;;
35847;SDS011;22332;51.954;20.118;2022-10-31T00:38:52;30.90;;;21.00;;
35847;SDS011;22332;51.954;20.118;2022-10-31T00:41:58;30.60;;;21.40;;
35847;SDS011;22332;51.954;20.118;2022-10-31T00:45:03;26.70;;;20.60;;
35847;SDS011;22332;51.954;20.118;2022-10-31T00:48:10;27.30;;;20.20;;
35847;SDS011;22332;51.954;20.118;2022-10-31T00:51:15;24.70;;;17.10;;
35847;SDS011;22332;51.954;20.118;2022-10-31T00:54:20;22.90;;;16.80;;
35847;SDS011;22332;51.954;20.118;2022-10-31T00:57:26;25.60;;;18.80;;
35847;SDS011;22332;51.954;20.118;2022-10-31T01:00:31;27.80;;;19.80;;
35847;SDS011;22332;51.954;20.118;2022-10-31T01:03:38;26.30;;;19.20;;
35847;SDS011;22332;51.954;20.118;2022-10-31T01:06:47;28.70;;;19.60;;
35847;SDS011;22332;51.954;20.118;2022-10-31T01:09:52;28.80;;;19.60;;
35847;SDS011;22332;51.954;20.118;2022-10-31T01:12:58;26.40;;;19.60;;
35847;SDS011;22332;51.954;20.118;2022-10-31T01:16:04;27.50;;;19.10;;
35847;SDS011;22332;51.954;20.118;2022-10-31T01:19:10;25.20;;;17.50;;
35847;SDS011;22332;51.954;20.118;2022-10-31T01:22:16;21.40;;;15.50;;
35847;SDS011;22332;51.954;20.118;2022-10-31T01:25:21;25.20;;;17.70;;
35847;SDS011;22332;51.954;20.118;2022-10-31T01:28:27;25.70;;;17.50;;
35847;SDS011;22332;51.954;20.118;2022-10-31T01:31:33;25.70;;;18.10;;
35847;SDS011;22332;51.954;20.118;2022-10-31T01:34:40;22.20;;;17.40;;
35847;SDS011;22332;51.954;20.118;2022-10-31T01:37:45;25.50;;;18.90;;
35847;SDS011;22332;51.954;20.118;2022-10-31T01:40:51;25.30;;;18.30;;
35847;SDS011;22332;51.954;20.118;2022-10-31T01:43:57;23.90;;;18.00;;
35847;SDS011;22332;51.954;20.118;2022-10-31T01:47:05;24.20;;;17.50;;
35847;SDS011;22332;51.954;20.118;2022-10-31T01:50:28;21.20;;;15.60;;
35847;SDS011;22332;51.954;20.118;2022-10-31T01:53:37;24.00;;;18.50;;
35847;SDS011;22332;51.954;20.118;2022-10-31T01:56:45;24.40;;;18.30;;
35847;SDS011;22332;51.954;20.118;2022-10-31T01:59:54;26.20;;;17.90;;
35847;SDS011;22332;51.954;20.118;2022-10-31T02:03:04;22.90;;;17.00;;
35847;SDS011;22332;51.954;20.118;2022-10-31T02:06:13;26.20;;;19.60;;
35847;SDS011;22332;51.954;20.118;2022-10-31T02:09:26;24.90;;;18.70;;
35847;SDS011;22332;51.954;20.118;2022-10-31T02:12:32;23.30;;;18.10;;
35847;SDS011;22332;51.954;20.118;2022-10-31T02:15:40;23.40;;;15.80;;
35847;SDS011;22332;51.954;20.118;2022-10-31T02:18:48;21.50;;;15.30;;
35847;SDS011;22332;51.954;20.118;2022-10-31T02:21:56;23.70;;;17.00;;
35847;SDS011;22332;51.954;20.118;2022-10-31T02:25:13;23.70;;;17.50;;
35847;SDS011;22332;51.954;20.118;2022-10-31T02:28:40;24.60;;;17.50;;
35847;SDS011;22332;51.954;20.118;2022-10-31T02:32:07;24.40;;;17.50;;
35847;SDS011;22332;51.954;20.118;2022-10-31T02:35:20;24.20;;;17.80;;
35847;SDS011;22332;51.954;20.118;2022-10-31T02:38:42;23.50;;;17.70;;
35847;SDS011;22332;51.954;20.118;2022-10-31T02:42:07;18.40;;;14.30;;
35847;SDS011;22332;51.954;20.118;2022-10-31T02:45:19;19.90;;;14.80;;
35847;SDS011;22332;51.954;20.118;2022-10-31T02:48:31;23.70;;;16.60;;
35847;SDS011;22332;51.954;20.118;2022-10-31T02:51:41;19.70;;;15.70;;
35847;SDS011;22332;51.954;20.118;2022-10-31T02:54:47;25.60;;;17.00;;
35847;SDS011;22332;51.954;20.118;2022-10-31T02:57:54;25.10;;;18.70;;
35847;SDS011;22332;51.954;20.118;2022-10-31T03:04:45;23.70;;;17.20;;
35847;SDS011;22332;51.954;20.118;2022-10-31T03:08:06;23.00;;;15.20;;
35847;SDS011;22332;51.954;20.118;2022-10-31T03:11:22;18.20;;;13.30;;
35847;SDS011;22332;51.954;20.118;2022-10-31T03:14:35;23.70;;;16.10;;
35847;SDS011;22332;51.954;20.118;2022-10-31T03:17:47;22.40;;;16.60;;
35847;SDS011;22332;51.954;20.118;2022-10-31T03:21:00;21.40;;;15.50;;
35847;SDS011;22332;51.954;20.118;2022-10-31T03:24:11;20.30;;;15.80;;
35847;SDS011;22332;51.954;20.118;2022-10-31T03:27:20;17.90;;;14.90;;
35847;SDS011;22332;51.954;20.118;2022-10-31T03:30:27;22.10;;;15.70;;
35847;SDS011;22332;51.954;20.118;2022-10-31T03:33:37;19.00;;;14.00;;
35847;SDS011;22332;51.954;20.118;2022-10-31T03:36:45;17.90;;;12.70;;
35847;SDS011;22332;51.954;20.118;2022-10-31T03:39:54;19.50;;;14.90;;
35847;SDS011;22332;51.954;20.118;2022-10-31T03:43:05;19.20;;;15.00;;
35847;SDS011;22332;51.954;20.118;2022-10-31T03:46:18;18.50;;;14.70;;
35847;SDS011;22332;51.954;20.118;2022-10-31T03:49:25;19.10;;;14.90;;
35847;SDS011;22332;51.954;20.118;2022-10-31T03:52:34;19.20;;;14.90;;
35847;SDS011;22332;51.954;20.118;2022-10-31T03:55:47;20.20;;;15.00;;
35847;SDS011;22332;51.954;20.118;2022-10-31T03:58:57;18.60;;;13.40;;
35847;SDS011;22332;51.954;20.118;2022-10-31T04:02:07;14.40;;;10.60;;
35847;SDS011;22332;51.954;20.118;2022-10-31T04:05:18;17.30;;;13.60;;
35847;SDS011;22332;51.954;20.118;2022-10-31T04:08:26;19.00;;;13.70;;
35847;SDS011;22332;51.954;20.118;2022-10-31T04:11:36;17.20;;;13.00;;
35847;SDS011;22332;51.954;20.118;2022-10-31T04:15:08;19.40;;;13.80;;
35847;SDS011;22332;51.954;20.118;2022-10-31T04:18:16;16.30;;;13.20;;
35847;SDS011;22332;51.954;20.118;2022-10-31T04:21:25;16.20;;;12.00;;
35847;SDS011;22332;51.954;20.118;2022-10-31T04:24:33;19.30;;;12.30;;
35847;SDS011;22332;51.954;20.118;2022-10-31T04:27:40;18.00;;;13.40;;
35847;SDS011;22332;51.954;20.118;2022-10-31T04:30:46;17.00;;;12.80;;
35847;SDS011;22332;51.954;20.118;2022-10-31T04:33:51;19.30;;;13.70;;
35847;SDS011;22332;51.954;20.118;2022-10-31T04:36:56;17.50;;;13.10;;
35847;SDS011;22332;51.954;20.118;2022-10-31T04:40:02;14.60;;;10.60;;
35847;SDS011;22332;51.954;20.118;2022-10-31T04:43:31;14.30;;;10.60;;
35847;SDS011;22332;51.954;20.118;2022-10-31T04:46:37;14.80;;;11.50;;
35847;SDS011;22332;51.954;20.118;2022-10-31T04:49:43;16.90;;;12.30;;
35847;SDS011;22332;51.954;20.118;2022-10-31T04:52:49;15.40;;;12.30;;
35847;SDS011;22332;51.954;20.118;2022-10-31T04:55:58;15.90;;;13.10;;
35847;SDS011;22332;51.954;20.118;2022-10-31T04:59:12;16.30;;;11.90;;
35847;SDS011;22332;51.954;20.118;2022-10-31T05:02:23;16.50;;;11.70;;
35847;SDS011;22332;51.954;20.118;2022-10-31T05:05:32;15.10;;;10.50;;
35847;SDS011;22332;51.954;20.118;2022-10-31T05:08:39;16.40;;;12.20;;
35847;SDS011;22332;51.954;20.118;2022-10-31T05:11:45;17.70;;;12.00;;
35847;SDS011;22332;51.954;20.118;2022-10-31T05:15:26;18.40;;;13.20;;
35847;SDS011;22332;51.954;20.118;2022-10-31T05:18:52;17.20;;;12.70;;
35847;SDS011;22332;51.954;20.118;2022-10-31T05:22:16;15.70;;;11.60;;
35847;SDS011;22332;51.954;20.118;2022-10-31T05:25:22;15.70;;;11.10;;
35847;SDS011;22332;51.954;20.118;2022-10-31T05:28:29;15.90;;;12.20;;
35847;SDS011;22332;51.954;20.118;2022-10-31T05:31:35;15.80;;;11.80;;
35847;SDS011;22332;51.954;20.118;2022-10-31T05:34:42;17.10;;;12.30;;
35847;SDS011;22332;51.954;20.118;2022-10-31T05:38:13;16.20;;;11.80;;
35847;SDS011;22332;51.954;20.118;2022-10-31T05:41:20;12.40;;;9.80;;
35847;SDS011;22332;51.954;20.118;2022-10-31T05:44:26;12.20;;;9.50;;
35847;SDS011;22332;51.954;20.118;2022-10-31T05:47:57;16.00;;;12.00;;
35847;SDS011;22332;51.954;20.118;2022-10-31T05:51:23;14.30;;;11.10;;
35847;SDS011;22332;51.954;20.118;2022-10-31T05:54:28;14.00;;;11.70;;
35847;SDS011;22332;51.954;20.118;2022-10-31T05:57:35;16.80;;;12.20;;
35847;SDS011;22332;51.954;20.118;2022-10-31T06:00:40;13.60;;;10.20;;
35847;SDS011;22332;51.954;20.118;2022-10-31T06:03:45;12.20;;;9.20;;
35847;SDS011;22332;51.954;20.118;2022-10-31T06:06:52;14.80;;;11.00;;
35847;SDS011;22332;51.954;20.118;2022-10-31T06:09:59;16.70;;;11.90;;
35847;SDS011;22332;51.954;20.118;2022-10-31T06:13:05;16.30;;;11.70;;
35847;SDS011;22332;51.954;20.118;2022-10-31T06:16:19;17.30;;;12.50;;
35847;SDS011;22332;51.954;20.118;2022-10-31T06:19:26;16.20;;;11.70;;
35847;SDS011;22332;51.954;20.118;2022-10-31T06:22:32;15.10;;;10.50;;
35847;SDS011;22332;51.954;20.118;2022-10-31T06:25:37;16.20;;;12.40;;
35847;SDS011;22332;51.954;20.118;2022-10-31T06:28:42;18.60;;;12.70;;
35847;SDS011;22332;51.954;20.118;2022-10-31T06:32:10;4.10;;;3.50;;
35847;SDS011;22332;51.954;20.118;2022-10-31T06:35:18;17.00;;;12.00;;
35847;SDS011;22332;51.954;20.118;2022-10-31T06:38:26;16.50;;;11.40;;
35847;SDS011;22332;51.954;20.118;2022-10-31T06:41:33;17.50;;;11.50;;
35847;SDS011;22332;51.954;20.118;2022-10-31T06:44:39;18.70;;;12.40;;
35847;SDS011;22332;51.954;20.118;2022-10-31T06:48:04;29.30;;;14.40;;
35847;SDS011;22332;51.954;20.118;2022-10-31T06:51:15;28.20;;;16.40;;
35847;SDS011;22332;51.954;20.118;2022-10-31T06:54:21;29.50;;;15.90;;
35847;SDS011;22332;51.954;20.118;2022-10-31T06:57:27;24.60;;;14.10;;
35847;SDS011;22332;51.954;20.118;2022-10-31T07:00:32;20.60;;;13.20;;
35847;SDS011;22332;51.954;20.118;2022-10-31T07:03:41;19.80;;;12.10;;
35847;SDS011;22332;51.954;20.118;2022-10-31T07:06:46;20.10;;;12.90;;
35847;SDS011;22332;51.954;20.118;2022-10-31T07:09:55;19.90;;;13.10;;
35847;SDS011;22332;51.954;20.118;2022-10-31T07:13:14;23.40;;;15.10;;
35847;SDS011;22332;51.954;20.118;2022-10-31T07:16:26;19.20;;;12.50;;
35847;SDS011;22332;51.954;20.118;2022-10-31T07:19:31;16.50;;;11.30;;
35847;SDS011;22332;51.954;20.118;2022-10-31T07:22:38;17.90;;;12.00;;
35847;SDS011;22332;51.954;20.118;2022-10-31T07:25:44;16.60;;;12.00;;
35847;SDS011;22332;51.954;20.118;2022-10-31T07:28:55;19.20;;;13.00;;
35847;SDS011;22332;51.954;20.118;2022-10-31T07:32:01;18.30;;;12.60;;
35847;SDS011;22332;51.954;20.118;2022-10-31T07:35:08;16.10;;;11.30;;
35847;SDS011;22332;51.954;20.118;2022-10-31T07:38:29;17.60;;;12.30;;
35847;SDS011;22332;51.954;20.118;2022-10-31T07:41:36;19.90;;;14.30;;
35847;SDS011;22332;51.954;20.118;2022-10-31T07:44:41;20.90;;;15.50;;
35847;SDS011;22332;51.954;20.118;2022-10-31T07:48:06;20.50;;;15.30;;
35847;SDS011;22332;51.954;20.118;2022-10-31T07:51:30;18.50;;;14.00;;
35847;SDS011;22332;51.954;20.118;2022-10-31T07:55:01;18.10;;;13.70;;
35847;SDS011;22332;51.954;20.118;2022-10-31T07:58:11;19.60;;;13.50;;
35847;SDS011;22332;51.954;20.118;2022-10-31T08:01:18;19.90;;;14.60;;
35847;SDS011;22332;51.954;20.118;2022-10-31T08:04:32;20.40;;;15.30;;
35847;SDS011;22332;51.954;20.118;2022-10-31T08:07:56;18.70;;;14.40;;
35847;SDS011;22332;51.954;20.118;2022-10-31T08:11:01;18.40;;;14.40;;
35847;SDS011;22332;51.954;20.118;2022-10-31T08:14:07;16.90;;;11.50;;
35847;SDS011;22332;51.954;20.118;2022-10-31T08:17:13;20.50;;;14.20;;
35847;SDS011;22332;51.954;20.118;2022-10-31T08:20:26;24.70;;;18.10;;
35847;SDS011;22332;51.954;20.118;2022-10-31T08:23:32;25.70;;;18.60;;
35847;SDS011;22332;51.954;20.118;2022-10-31T08:26:39;25.50;;;17.20;;
35847;SDS011;22332;51.954;20.118;2022-10-31T08:29:45;23.30;;;16.70;;
35847;SDS011;22332;51.954;20.118;2022-10-31T08:32:58;24.10;;;15.90;;
35847;SDS011;22332;51.954;20.118;2022-10-31T08:36:23;22.90;;;16.00;;
35847;SDS011;22332;51.954;20.118;2022-10-31T08:39:40;22.90;;;16.90;;
35847;SDS011;22332;51.954;20.118;2022-10-31T08:42:47;21.60;;;16.50;;
35847;SDS011;22332;51.954;20.118;2022-10-31T08:45:59;23.00;;;16.90;;
35847;SDS011;22332;51.954;20.118;2022-10-31T08:49:04;20.90;;;15.90;;
35847;SDS011;22332;51.954;20.118;2022-10-31T08:52:10;16.80;;;13.50;;
35847;SDS011;22332;51.954;20.118;2022-10-31T08:55:18;18.90;;;14.50;;
35847;SDS011;22332;51.954;20.118;2022-10-31T08:58:38;21.40;;;15.70;;
35847;SDS011;22332;51.954;20.118;2022-10-31T09:01:45;19.80;;;15.50;;
35847;SDS011;22332;51.954;20.118;2022-10-31T09:04:51;21.00;;;16.50;;
35847;SDS011;22332;51.954;20.118;2022-10-31T09:07:56;21.10;;;16.10;;
35847;SDS011;22332;51.954;20.118;2022-10-31T09:11:03;20.40;;;15.40;;
35847;SDS011;22332;51.954;20.118;2022-10-31T09:14:28;20.00;;;14.70;;
35847;SDS011;22332;51.954;20.118;2022-10-31T09:18:09;19.70;;;15.40;;
35847;SDS011;22332;51.954;20.118;2022-10-31T09:21:25;22.70;;;17.30;;
35847;SDS011;22332;51.954;20.118;2022-10-31T09:24:31;21.10;;;17.00;;
35847;SDS011;22332;51.954;20.118;2022-10-31T09:27:36;21.90;;;17.30;;
35847;SDS011;22332;51.954;20.118;2022-10-31T09:30:42;23.60;;;16.50;;
35847;SDS011;22332;51.954;20.118;2022-10-31T09:33:50;20.20;;;15.40;;
35847;SDS011;22332;51.954;20.118;2022-10-31T09:37:29;19.20;;;15.40;;
35847;SDS011;22332;51.954;20.118;2022-10-31T09:40:35;23.60;;;18.00;;
35847;SDS011;22332;51.954;20.118;2022-10-31T09:43:46;22.60;;;17.30;;
35847;SDS011;22332;51.954;20.118;2022-10-31T09:47:04;23.00;;;17.90;;
35847;SDS011;22332;51.954;20.118;2022-10-31T09:50:23;20.20;;;15.00;;
35847;SDS011;22332;51.954;20.118;2022-10-31T09:54:01;19.60;;;14.20;;
35847;SDS011;22332;51.954;20.118;2022-10-31T09:57:12;18.80;;;15.30;;
35847;SDS011;22332;51.954;20.118;2022-10-31T10:00:21;21.40;;;16.00;;
35847;SDS011;22332;51.954;20.118;2022-10-31T10:03:31;19.80;;;16.30;;
35847;SDS011;22332;51.954;20.118;2022-10-31T10:06:47;21.60;;;17.70;;
35847;SDS011;22332;51.954;20.118;2022-10-31T10:10:16;22.00;;;17.20;;
35847;SDS011;22332;51.954;20.118;2022-10-31T10:13:51;21.00;;;15.40;;
35847;SDS011;22332;51.954;20.118;2022-10-31T10:17:11;20.50;;;15.90;;
35847;SDS011;22332;51.954;20.118;2022-10-31T10:20:28;19.80;;;16.30;;
35847;SDS011;22332;51.954;20.118;2022-10-31T10:23:45;22.00;;;17.30;;
35847;SDS011;22332;51.954;20.118;2022-10-31T10:27:01;22.70;;;17.70;;
35847;SDS011;22332;51.954;20.118;2022-10-31T10:30:17;22.50;;;18.40;;
35847;SDS011;22332;51.954;20.118;2022-10-31T10:33:26;25.40;;;19.60;;
35847;SDS011;22332;51.954;20.118;2022-10-31T10:39:43;23.50;;;18.00;;
35847;SDS011;22332;51.954;20.118;2022-10-31T10:42:53;25.10;;;18.80;;
35847;SDS011;22332;51.954;20.118;2022-10-31T10:46:23;25.40;;;20.30;;
35847;SDS011;22332;51.954;20.118;2022-10-31T10:49:54;24.80;;;19.80;;
35847;SDS011;22332;51.954;20.118;2022-10-31T10:53:01;32.60;;;23.50;;
35847;SDS011;22332;51.954;20.118;2022-10-31T10:56:15;26.00;;;20.50;;
35847;SDS011;22332;51.954;20.118;2022-10-31T10:59:25;28.90;;;20.40;;
35847;SDS011;22332;51.954;20.118;2022-10-31T11:02:33;29.80;;;21.80;;
35847;SDS011;22332;51.954;20.118;2022-10-31T11:05:39;27.80;;;21.10;;
35847;SDS011;22332;51.954;20.118;2022-10-31T11:08:47;27.30;;;21.10;;
35847;SDS011;22332;51.954;20.118;2022-10-31T11:11:53;26.20;;;20.00;;
35847;SDS011;22332;51.954;20.118;2022-10-31T11:15:00;30.00;;;21.40;;
35847;SDS011;22332;51.954;20.118;2022-10-31T11:18:16;29.30;;;21.10;;
35847;SDS011;22332;51.954;20.118;2022-10-31T11:21:25;23.80;;;18.40;;
35847;SDS011;22332;51.954;20.118;2022-10-31T11:24:37;26.70;;;20.20;;
35847;SDS011;22332;51.954;20.118;2022-10-31T11:27:44;27.80;;;20.50;;
35847;SDS011;22332;51.954;20.118;2022-10-31T11:30:51;27.90;;;20.50;;
35847;SDS011;22332;51.954;20.118;2022-10-31T11:33:59;25.40;;;19.40;;
35847;SDS011;22332;51.954;20.118;2022-10-31T11:37:11;28.60;;;21.10;;
35847;SDS011;22332;51.954;20.118;2022-10-31T11:40:20;25.50;;;18.90;;
35847;SDS011;22332;51.954;20.118;2022-10-31T11:43:27;30.10;;;21.70;;
35847;SDS011;22332;51.954;20.118;2022-10-31T11:46:34;30.70;;;21.80;;
35847;SDS011;22332;51.954;20.118;2022-10-31T11:49:42;34.40;;;23.40;;
35847;SDS011;22332;51.954;20.118;2022-10-31T11:52:52;39.70;;;26.20;;
35847;SDS011;22332;51.954;20.118;2022-10-31T11:56:03;39.50;;;27.70;;
35847;SDS011;22332;51.954;20.118;2022-10-31T11:59:18;33.10;;;23.20;;
35847;SDS011;22332;51.954;20.118;2022-10-31T12:02:28;28.70;;;21.00;;
35847;SDS011;22332;51.954;20.118;2022-10-31T12:05:34;29.90;;;21.90;;
35847;SDS011;22332;51.954;20.118;2022-10-31T12:08:41;30.30;;;22.60;;
35847;SDS011;22332;51.954;20.118;2022-10-31T12:11:49;29.70;;;21.70;;
35847;SDS011;22332;51.954;20.118;2022-10-31T12:15:07;32.30;;;23.10;;
35847;SDS011;22332;51.954;20.118;2022-10-31T12:18:35;33.20;;;21.20;;
35847;SDS011;22332;51.954;20.118;2022-10-31T12:21:55;35.00;;;22.10;;
35847;SDS011;22332;51.954;20.118;2022-10-31T12:25:15;32.60;;;22.60;;
35847;SDS011;22332;51.954;20.118;2022-10-31T12:28:43;35.20;;;23.60;;
35847;SDS011;22332;51.954;20.118;2022-10-31T12:32:01;32.90;;;22.40;;
35847;SDS011;22332;51.954;20.118;2022-10-31T12:35:22;32.40;;;23.50;;
35847;SDS011;22332;51.954;20.118;2022-10-31T12:38:41;34.00;;;23.80;;
35847;SDS011;22332;51.954;20.118;2022-10-31T12:41:58;36.40;;;24.00;;
35847;SDS011;22332;51.954;20.118;2022-10-31T12:45:18;38.80;;;25.30;;
35847;SDS011;22332;51.954;20.118;2022-10-31T12:48:41;35.60;;;23.70;;
35847;SDS011;22332;51.954;20.118;2022-10-31T12:52:00;31.20;;;21.60;;
35847;SDS011;22332;51.954;20.118;2022-10-31T12:55:16;39.00;;;26.10;;
35847;SDS011;22332;51.954;20.118;2022-10-31T12:58:37;37.30;;;24.30;;
35847;SDS011;22332;51.954;20.118;2022-10-31T13:01:48;33.60;;;22.40;;
35847;SDS011;22332;51.954;20.118;2022-10-31T13:04:59;41.10;;;26.30;;
35847;SDS011;22332;51.954;20.118;2022-10-31T13:08:07;35.60;;;23.90;;
35847;SDS011;22332;51.954;20.118;2022-10-31T13:11:16;36.50;;;24.30;;
35847;SDS011;22332;51.954;20.118;2022-10-31T13:14:26;46.90;;;29.70;;
35847;SDS011;22332;51.954;20.118;2022-10-31T13:17:37;39.10;;;25.70;;
35847;SDS011;22332;51.954;20.118;2022-10-31T13:20:46;38.20;;;24.40;;
35847;SDS011;22332;51.954;20.118;2022-10-31T13:23:54;40.40;;;26.40;;
35847;SDS011;22332;51.954;20.118;2022-10-31T13:27:03;39.50;;;25.10;;
35847;SDS011;22332;51.954;20.118;2022-10-31T13:30:17;40.30;;;25.30;;
35847;SDS011;22332;51.954;20.118;2022-10-31T13:33:25;38.40;;;25.70;;
35847;SDS011;22332;51.954;20.118;2022-10-31T13:36:35;34.20;;;21.70;;
35847;SDS011;22332;51.954;20.118;2022-10-31T13:39:49;39.50;;;24.10;;
35847;SDS011;22332;51.954;20.118;2022-10-31T13:43:09;38.40;;;25.30;;
35847;SDS011;22332;51.954;20.118;2022-10-31T13:46:24;40.20;;;25.30;;
35847;SDS011;22332;51.954;20.118;2022-10-31T13:49:38;42.40;;;27.30;;
35847;SDS011;22332;51.954;20.118;2022-10-31T13:52:44;45.40;;;28.30;;
35847;SDS011;22332;51.954;20.118;2022-10-31T13:55:50;33.80;;;22.10;;
35847;SDS011;22332;51.954;20.118;2022-10-31T13:59:18;37.50;;;23.60;;
35847;SDS011;22332;51.954;20.118;2022-10-31T14:02:26;38.60;;;25.20;;
35847;SDS011;22332;51.954;20.118;2022-10-31T14:05:33;38.60;;;24.50;;
35847;SDS011;22332;51.954;20.118;2022-10-31T14:08:41;40.80;;;26.00;;
35847;SDS011;22332;51.954;20.118;2022-10-31T14:11:54;39.30;;;24.90;;
35847;SDS011;22332;51.954;20.118;2022-10-31T14:15:02;39.70;;;25.20;;
35847;SDS011;22332;51.954;20.118;2022-10-31T14:18:23;35.10;;;22.70;;
35847;SDS011;22332;51.954;20.118;2022-10-31T14:21:37;36.00;;;24.40;;
35847;SDS011;22332;51.954;20.118;2022-10-31T14:24:45;39.50;;;26.30;;
35847;SDS011;22332;51.954;20.118;2022-10-31T14:27:50;39.80;;;26.60;;
35847;SDS011;22332;51.954;20.118;2022-10-31T14:30:56;46.70;;;30.50;;
35847;SDS011;22332;51.954;20.118;2022-10-31T14:34:04;39.60;;;24.60;;
35847;SDS011;22332;51.954;20.118;2022-10-31T14:37:35;33.80;;;22.30;;
35847;SDS011;22332;51.954;20.118;2022-10-31T14:40:57;41.50;;;27.20;;
35847;SDS011;22332;51.954;20.118;2022-10-31T14:44:29;37.60;;;25.70;;
35847;SDS011;22332;51.954;20.118;2022-10-31T14:47:55;39.60;;;25.90;;
35847;SDS011;22332;51.954;20.118;2022-10-31T14:54:19;32.90;;;21.90;;
35847;SDS011;22332;51.954;20.118;2022-10-31T15:00:37;38.60;;;24.20;;
35847;SDS011;22332;51.954;20.118;2022-10-31T15:03:44;43.40;;;27.40;;
35847;SDS011;22332;51.954;20.118;2022-10-31T15:06:51;43.60;;;29.20;;
35847;SDS011;22332;51.954;20.118;2022-10-31T15:10:03;37.10;;;23.70;;
35847;SDS011;22332;51.954;20.118;2022-10-31T15:13:10;31.50;;;20.20;;
35847;SDS011;22332;51.954;20.118;2022-10-31T15:16:22;39.10;;;26.10;;
35847;SDS011;22332;51.954;20.118;2022-10-31T15:19:30;40.20;;;26.60;;
35847;SDS011;22332;51.954;20.118;2022-10-31T15:22:39;40.20;;;26.50;;
35847;SDS011;22332;51.954;20.118;2022-10-31T15:25:44;37.90;;;24.20;;
35847;SDS011;22332;51.954;20.118;2022-10-31T15:28:58;35.90;;;23.60;;
35847;SDS011;22332;51.954;20.118;2022-10-31T15:32:15;48.40;;;31.60;;
35847;SDS011;22332;51.954;20.118;2022-10-31T15:35:24;47.30;;;29.90;;
35847;SDS011;22332;51.954;20.118;2022-10-31T15:38:31;46.60;;;31.10;;
35847;SDS011;22332;51.954;20.118;2022-10-31T15:41:39;42.60;;;26.40;;
35847;SDS011;22332;51.954;20.118;2022-10-31T15:44:53;48.40;;;29.70;;
35847;SDS011;22332;51.954;20.118;2022-10-31T15:51:16;48.80;;;29.70;;
35847;SDS011;22332;51.954;20.118;2022-10-31T15:54:28;51.00;;;32.20;;
35847;SDS011;22332;51.954;20.118;2022-10-31T15:57:34;49.60;;;29.70;;
35847;SDS011;22332;51.954;20.118;2022-10-31T16:00:45;49.50;;;30.90;;
35847;SDS011;22332;51.954;20.118;2022-10-31T16:04:03;68.30;;;40.50;;
35847;SDS011;22332;51.954;20.118;2022-10-31T16:07:25;62.80;;;39.90;;
35847;SDS011;22332;51.954;20.118;2022-10-31T16:10:33;69.40;;;44.10;;
35847;SDS011;22332;51.954;20.118;2022-10-31T16:13:41;64.80;;;41.50;;
35847;SDS011;22332;51.954;20.118;2022-10-31T16:16:58;64.40;;;40.90;;
35847;SDS011;22332;51.954;20.118;2022-10-31T16:20:05;67.80;;;42.70;;
35847;SDS011;22332;51.954;20.118;2022-10-31T16:23:22;66.70;;;42.10;;
35847;SDS011;22332;51.954;20.118;2022-10-31T16:26:29;63.80;;;40.80;;
35847;SDS011;22332;51.954;20.118;2022-10-31T16:29:36;48.20;;;29.10;;
35847;SDS011;22332;51.954;20.118;2022-10-31T16:32:53;59.20;;;35.50;;
35847;SDS011;22332;51.954;20.118;2022-10-31T16:36:00;68.50;;;39.60;;
35847;SDS011;22332;51.954;20.118;2022-10-31T16:39:33;62.20;;;37.90;;
35847;SDS011;22332;51.954;20.118;2022-10-31T16:42:38;73.90;;;42.60;;
35847;SDS011;22332;51.954;20.118;2022-10-31T16:45:44;76.30;;;43.00;;
35847;SDS011;22332;51.954;20.118;2022-10-31T16:48:51;70.10;;;41.00;;
35847;SDS011;22332;51.954;20.118;2022-10-31T16:51:57;76.10;;;42.00;;
35847;SDS011;22332;51.954;20.118;2022-10-31T16:55:02;69.60;;;40.60;;
35847;SDS011;22332;51.954;20.118;2022-10-31T16:58:09;62.20;;;36.40;;
35847;SDS011;22332;51.954;20.118;2022-10-31T17:01:22;53.30;;;31.60;;
35847;SDS011;22332;51.954;20.118;2022-10-31T17:04:27;47.40;;;29.50;;
35847;SDS011;22332;51.954;20.118;2022-10-31T17:07:33;59.90;;;34.00;;
35847;SDS011;22332;51.954;20.118;2022-10-31T17:10:38;67.60;;;36.40;;
35847;SDS011;22332;51.954;20.118;2022-10-31T17:13:45;79.30;;;43.90;;
35847;SDS011;22332;51.954;20.118;2022-10-31T17:16:51;70.10;;;39.10;;
35847;SDS011;22332;51.954;20.118;2022-10-31T17:19:57;65.70;;;35.80;;
35847;SDS011;22332;51.954;20.118;2022-10-31T17:23:02;60.50;;;33.40;;
35847;SDS011;22332;51.954;20.118;2022-10-31T17:26:07;58.90;;;34.10;;
35847;SDS011;22332;51.954;20.118;2022-10-31T17:29:13;59.10;;;33.80;;
35847;SDS011;22332;51.954;20.118;2022-10-31T17:32:19;47.20;;;28.30;;
35847;SDS011;22332;51.954;20.118;2022-10-31T17:35:25;48.50;;;27.90;;
35847;SDS011;22332;51.954;20.118;2022-10-31T17:38:30;59.90;;;33.10;;
35847;SDS011;22332;51.954;20.118;2022-10-31T17:41:36;42.00;;;25.80;;
35847;SDS011;22332;51.954;20.118;2022-10-31T17:44:41;56.50;;;33.30;;
35847;SDS011;22332;51.954;20.118;2022-10-31T17:47:47;53.90;;;30.10;;
35847;SDS011;22332;51.954;20.118;2022-10-31T17:50:53;49.30;;;27.60;;
35847;SDS011;22332;51.954;20.118;2022-10-31T17:54:02;58.90;;;31.10;;
35847;SDS011;22332;51.954;20.118;2022-10-31T17:57:10;71.60;;;36.30;;
35847;SDS011;22332;51.954;20.118;2022-10-31T18:00:16;55.30;;;31.20;;
35847;SDS011;22332;51.954;20.118;2022-10-31T18:03:25;70.70;;;37.30;;
35847;SDS011;22332;51.954;20.118;2022-10-31T18:06:31;92.50;;;60.80;;
35847;SDS011;22332;51.954;20.118;2022-10-31T18:09:36;79.20;;;49.30;;
35847;SDS011;22332;51.954;20.118;2022-10-31T18:12:41;95.80;;;66.20;;
35847;SDS011;22332;51.954;20.118;2022-10-31T18:15:47;72.60;;;46.00;;
35847;SDS011;22332;51.954;20.118;2022-10-31T18:18:54;56.00;;;33.50;;
35847;SDS011;22332;51.954;20.118;2022-10-31T18:22:03;44.40;;;26.10;;
35847;SDS011;22332;51.954;20.118;2022-10-31T18:25:09;57.40;;;30.50;;
35847;SDS011;22332;51.954;20.118;2022-10-31T18:28:15;53.80;;;30.70;;
35847;SDS011;22332;51.954;20.118;2022-10-31T18:31:20;67.00;;;35.60;;
35847;SDS011;22332;51.954;20.118;2022-10-31T18:34:26;52.90;;;28.10;;
35847;SDS011;22332;51.954;20.118;2022-10-31T18:37:31;52.00;;;28.30;;